createdAt,value
2018-02-08T00:00:14.134Z,101050.38
2018-02-08T00:02:41.712Z,101051.27
2018-02-08T00:05:09.846Z,101045.42
2018-02-08T00:07:37.783Z,101045.70
2018-02-08T00:10:06.374Z,101050.12
2018-02-08T00:12:33.930Z,101049.14
2018-02-08T00:15:01.549Z,101048.69
2018-02-08T00:17:29.174Z,101050.98
2018-02-08T00:19:56.703Z,101053.87
2018-02-08T00:22:35.902Z,101046.31
2018-02-08T00:25:03.487Z,101047.89
2018-02-08T00:27:30.981Z,101045.39
2018-02-08T00:29:58.613Z,101045.66
2018-02-08T00:32:26.141Z,101044.95
2018-02-08T00:34:53.746Z,101049.27
2018-02-08T00:37:21.706Z,101048.03
2018-02-08T00:39:49.373Z,101049.88
2018-02-08T00:42:17.135Z,101051.66
2018-02-08T00:44:45.719Z,101049.06
2018-02-08T00:47:13.241Z,101044.52
2018-02-08T00:49:40.907Z,101049.77
2018-02-08T00:52:08.395Z,101052.29
2018-02-08T00:54:35.992Z,101051.46
2018-02-08T00:57:03.591Z,101059.08
2018-02-08T00:59:31.168Z,101056.81
2018-02-08T01:01:58.705Z,101058.98
2018-02-08T01:04:26.218Z,101062.57
2018-02-08T01:06:53.746Z,101067.00
2018-02-08T01:09:21.401Z,101058.97
2018-02-08T01:11:49.071Z,101062.16
2018-02-08T01:14:16.629Z,101063.07
2018-02-08T01:16:44.124Z,101055.88
2018-02-08T01:19:11.837Z,101053.87
2018-02-08T01:21:39.349Z,101064.84
2018-02-08T01:24:06.902Z,101061.67
2018-02-08T01:26:34.460Z,101062.99
2018-02-08T01:29:02.028Z,101060.42
2018-02-08T01:31:29.552Z,101053.46
2018-02-08T01:33:57.238Z,101058.01
2018-02-08T01:36:24.793Z,101053.87
2018-02-08T01:38:52.433Z,101059.14
2018-02-08T01:41:20.022Z,101049.39
2018-02-08T01:43:47.617Z,101052.65
2018-02-08T01:46:15.152Z,101053.93
2018-02-08T01:48:42.726Z,101050.63
2018-02-08T01:51:10.227Z,101044.23
2018-02-08T01:53:37.946Z,101042.91
2018-02-08T01:56:05.442Z,101042.44
2018-02-08T01:58:32.993Z,101042.06
2018-02-08T02:01:00.509Z,101047.55
2018-02-08T02:03:28.139Z,101047.69
2018-02-08T02:05:55.674Z,101044.15
2018-02-08T02:08:23.224Z,101038.98
2018-02-08T02:10:50.781Z,101044.15
2018-02-08T02:13:18.270Z,101037.13
2018-02-08T02:15:45.765Z,101040.52
2018-02-08T02:18:13.288Z,101042.08
2018-02-08T02:20:40.815Z,101047.05
2018-02-08T02:23:08.370Z,101042.53
2018-02-08T02:25:35.891Z,101038.30
2018-02-08T02:28:03.386Z,101031.89
2018-02-08T02:30:30.886Z,101037.81
2018-02-08T02:32:58.447Z,101035.98
2018-02-08T02:35:25.992Z,101039.45
2018-02-08T02:37:54.099Z,101038.38
2018-02-08T02:40:21.617Z,101031.77
2018-02-08T02:42:49.158Z,101030.42
2018-02-08T02:45:16.656Z,101024.28
2018-02-08T02:47:44.209Z,101021.71
2018-02-08T02:50:11.761Z,101029.88
2018-02-08T02:52:39.262Z,101024.58
2018-02-08T02:55:06.905Z,101024.19
2018-02-08T02:57:34.421Z,101027.66
2018-02-08T03:00:02.035Z,101023.42
2018-02-08T03:02:29.531Z,101028.62
2018-02-08T03:04:57.297Z,101018.02
2018-02-08T03:07:24.821Z,101021.17
2018-02-08T03:09:52.359Z,101012.89
2018-02-08T03:12:20.022Z,101016.83
2018-02-08T03:14:47.590Z,101020.81
2018-02-08T03:17:16.004Z,101014.14
2018-02-08T03:19:43.629Z,101018.66
2018-02-08T03:22:11.162Z,101015.20
2018-02-08T03:24:38.670Z,101015.66
2018-02-08T03:27:06.188Z,101020.84
2018-02-08T03:29:33.706Z,101025.69
2018-02-08T03:32:01.332Z,101025.28
2018-02-08T03:34:28.904Z,101028.29
2018-02-08T03:36:56.547Z,101031.14
2018-02-08T03:39:24.093Z,101027.63
2018-02-08T03:41:51.584Z,101035.80
2018-02-08T03:44:19.125Z,101031.27
2018-02-08T03:46:46.703Z,101033.29
2018-02-08T03:49:14.213Z,101043.63
2018-02-08T03:51:41.811Z,101039.83
2018-02-08T03:54:09.351Z,101043.13
2018-02-08T03:56:37.487Z,101040.84
2018-02-08T03:59:04.981Z,101042.28
2018-02-08T04:01:32.517Z,101050.78
2018-02-08T04:04:00.040Z,101050.70
2018-02-08T04:06:27.554Z,101053.40
2018-02-08T04:08:55.570Z,101057.64
2018-02-08T04:11:23.081Z,101058.54
2018-02-08T04:13:50.663Z,101064.75
2018-02-08T04:16:18.159Z,101068.02
2018-02-08T04:18:45.704Z,101066.57
2018-02-08T04:21:13.352Z,101067.61
2018-02-08T04:23:40.895Z,101076.58
2018-02-08T04:26:08.515Z,101078.16
2018-02-08T04:28:36.019Z,101078.97
2018-02-08T04:31:03.563Z,101084.32
2018-02-08T04:33:31.062Z,101084.13
2018-02-08T04:35:58.587Z,101089.20
2018-02-08T04:38:37.759Z,101094.60
2018-02-08T04:41:17.711Z,101094.03
2018-02-08T04:43:57.088Z,101092.84
2018-02-08T04:46:36.483Z,101095.69
2018-02-08T04:49:04.019Z,101092.41
2018-02-08T04:51:33.240Z,101090.97
2018-02-08T04:54:00.809Z,101092.85
2018-02-08T04:56:28.335Z,101093.61
2018-02-08T04:58:55.943Z,101096.91
2018-02-08T05:01:23.476Z,101098.41
2018-02-08T05:03:50.973Z,101097.16
2018-02-08T05:06:18.521Z,101104.28
2018-02-08T05:08:46.117Z,101104.91
2018-02-08T05:11:13.652Z,101116.53
2018-02-08T05:13:41.206Z,101107.78
2018-02-08T05:16:08.701Z,101118.58
2018-02-08T05:18:36.235Z,101117.53
2018-02-08T05:21:03.799Z,101114.77
2018-02-08T05:23:31.401Z,101115.94
2018-02-08T05:25:58.893Z,101115.73
2018-02-08T05:28:26.429Z,101116.89
2018-02-08T05:30:53.952Z,101118.81
2018-02-08T05:33:21.476Z,101111.48
2018-02-08T05:35:49.002Z,101119.14
2018-02-08T05:38:16.526Z,101116.41
2018-02-08T05:40:44.135Z,101114.92
2018-02-08T05:43:11.649Z,101116.66
2018-02-08T05:45:39.174Z,101121.58
2018-02-08T05:48:12.609Z,101120.20
2018-02-08T05:50:40.148Z,101122.52
2018-02-08T05:53:13.099Z,101126.52
2018-02-08T05:55:40.619Z,101129.44
2018-02-08T05:58:08.257Z,101130.75
2018-02-08T06:00:35.793Z,101130.42
2018-02-08T06:03:03.299Z,101128.77
2018-02-08T06:05:30.813Z,101124.53
2018-02-08T06:07:58.356Z,101133.50
2018-02-08T06:10:25.847Z,101134.72
2018-02-08T06:12:53.393Z,101126.21
2018-02-08T06:15:20.910Z,101133.13
2018-02-08T06:17:48.476Z,101134.05
2018-02-08T06:20:16.049Z,101134.47
2018-02-08T06:22:43.546Z,101139.56
2018-02-08T06:25:11.104Z,101142.43
2018-02-08T06:27:38.604Z,101144.16
2018-02-08T06:30:06.105Z,101148.19
2018-02-08T06:32:33.643Z,101139.29
2018-02-08T06:35:01.275Z,101146.30
2018-02-08T06:37:28.797Z,101142.85
2018-02-08T06:39:56.352Z,101140.14
2018-02-08T06:42:23.877Z,101143.89
2018-02-08T06:44:51.454Z,101143.19
2018-02-08T06:47:18.924Z,101141.91
2018-02-08T06:49:46.448Z,101140.29
2018-02-08T06:52:13.937Z,101157.45
2018-02-08T06:54:41.509Z,101150.19
2018-02-08T06:57:09.069Z,101155.59
2018-02-08T06:59:36.606Z,101161.59
2018-02-08T07:02:04.142Z,101163.00
2018-02-08T07:04:31.682Z,101161.50
2018-02-08T07:06:59.200Z,101163.55
2018-02-08T07:09:26.740Z,101162.66
2018-02-08T07:11:54.268Z,101165.28
2018-02-08T07:14:21.782Z,101169.70
2018-02-08T07:16:49.318Z,101171.71
2018-02-08T07:19:16.879Z,101171.47
2018-02-08T07:21:44.400Z,101171.80
2018-02-08T07:24:11.925Z,101179.55
2018-02-08T07:26:40.194Z,101185.09
2018-02-08T07:29:07.723Z,101190.42
2018-02-08T07:31:35.270Z,101191.92
2018-02-08T07:34:02.800Z,101190.89
2018-02-08T07:36:30.377Z,101197.44
2018-02-08T07:38:57.943Z,101198.64
2018-02-08T07:41:25.436Z,101199.73
2018-02-08T07:43:52.977Z,101193.61
2018-02-08T07:46:20.510Z,101199.51
2018-02-08T07:48:48.065Z,101203.84
2018-02-08T07:51:15.701Z,101205.60
2018-02-08T07:53:43.212Z,101199.59
2018-02-08T07:56:10.756Z,101198.73
2018-02-08T07:58:38.325Z,101195.08
2018-02-08T08:01:05.830Z,101200.95
2018-02-08T08:03:33.337Z,101202.61
2018-02-08T08:06:00.898Z,101205.95
2018-02-08T08:08:28.419Z,101206.08
2018-02-08T08:10:56.321Z,101200.71
2018-02-08T08:13:23.846Z,101203.66
2018-02-08T08:15:51.408Z,101197.47
2018-02-08T08:18:18.932Z,101204.41
2018-02-08T08:20:46.445Z,101204.08
2018-02-08T08:23:13.983Z,101202.56
2018-02-08T08:25:41.486Z,101204.49
2018-02-08T08:28:08.989Z,101200.50
2018-02-08T08:30:36.529Z,101205.12
2018-02-08T08:33:04.064Z,101201.64
2018-02-08T08:35:31.579Z,101210.43
2018-02-08T08:37:59.095Z,101202.58
2018-02-08T08:40:26.685Z,101205.55
2018-02-08T08:42:54.180Z,101199.30
2018-02-08T08:45:21.705Z,101197.75
2018-02-08T08:47:49.210Z,101201.12
2018-02-08T08:50:16.705Z,101210.63
2018-02-08T08:52:44.226Z,101211.89
2018-02-08T08:55:11.731Z,101215.41
2018-02-08T08:57:39.217Z,101215.84
2018-02-08T09:00:06.744Z,101215.51
2018-02-08T09:02:34.232Z,101212.09
2018-02-08T09:05:01.732Z,101216.89
2018-02-08T09:07:29.232Z,101218.08
2018-02-08T09:09:56.741Z,101225.08
2018-02-08T09:12:24.271Z,101222.79
2018-02-08T09:14:51.778Z,101222.02
2018-02-08T09:17:19.280Z,101222.75
2018-02-08T09:19:46.800Z,101218.34
2018-02-08T09:22:14.325Z,101225.09
2018-02-08T09:24:41.857Z,101227.40
2018-02-08T09:27:09.358Z,101228.08
2018-02-08T09:29:36.884Z,101224.59
2018-02-08T09:32:04.412Z,101231.09
2018-02-08T09:34:31.950Z,101221.76
2018-02-08T09:36:59.530Z,101219.41
2018-02-08T09:39:27.108Z,101221.72
2018-02-08T09:41:54.624Z,101221.34
2018-02-08T09:44:22.165Z,101227.84
2018-02-08T09:46:49.669Z,101226.95
2018-02-08T09:49:17.193Z,101225.31
2018-02-08T09:51:51.512Z,101226.78
2018-02-08T09:54:19.113Z,101226.59
2018-02-08T09:56:46.651Z,101230.81
2018-02-08T09:59:14.141Z,101231.85
2018-02-08T10:01:41.644Z,101235.09
2018-02-08T10:04:09.169Z,101234.20
2018-02-08T10:06:36.693Z,101239.83
2018-02-08T10:09:04.221Z,101235.97
2018-02-08T10:11:32.323Z,101242.95
2018-02-08T10:13:59.845Z,101238.13
2018-02-08T10:16:27.382Z,101241.13
2018-02-08T10:18:54.895Z,101241.10
2018-02-08T10:21:22.454Z,101243.02
2018-02-08T10:23:50.010Z,101245.22
2018-02-08T10:26:17.580Z,101242.22
2018-02-08T10:28:45.092Z,101237.75
2018-02-08T10:31:12.569Z,101239.59
2018-02-08T10:33:40.278Z,101240.73
2018-02-08T10:36:08.527Z,101243.29
2018-02-08T10:38:36.059Z,101238.38
2018-02-08T10:41:03.878Z,101240.41
2018-02-08T10:43:31.434Z,101235.38
2018-02-08T10:45:59.243Z,101235.12
2018-02-08T10:48:27.546Z,101234.55
2018-02-08T10:50:55.182Z,101236.70
2018-02-08T10:53:22.702Z,101228.89
2018-02-08T10:55:50.200Z,101229.28
2018-02-08T10:58:17.698Z,101228.95
2018-02-08T11:00:45.240Z,101227.73
2018-02-08T11:03:12.926Z,101222.12
2018-02-08T11:05:40.440Z,101219.44
2018-02-08T11:08:07.977Z,101217.59
2018-02-08T11:10:35.580Z,101218.40
2018-02-08T11:13:03.112Z,101212.51
2018-02-08T11:15:30.622Z,101212.06
2018-02-08T11:17:58.117Z,101212.05
2018-02-08T11:20:25.640Z,101221.69
2018-02-08T11:22:53.131Z,101216.73
2018-02-08T11:25:20.687Z,101218.47
2018-02-08T11:27:48.213Z,101215.58
2018-02-08T11:30:15.719Z,101217.21
2018-02-08T11:32:43.229Z,101215.45
2018-02-08T11:35:10.785Z,101216.21
2018-02-08T11:37:38.273Z,101217.97
2018-02-08T11:40:05.763Z,101216.83
2018-02-08T11:42:33.315Z,101213.72
2018-02-08T11:45:00.982Z,101212.52
2018-02-08T11:47:28.473Z,101207.13
2018-02-08T11:49:55.997Z,101204.17
2018-02-08T11:52:23.550Z,101205.48
2018-02-08T11:54:51.182Z,101206.77
2018-02-08T11:57:18.716Z,101212.95
2018-02-08T11:59:46.281Z,101207.41
2018-02-08T12:02:13.790Z,101203.48
2018-02-08T12:04:41.310Z,101199.98
2018-02-08T12:07:08.848Z,101199.71
2018-02-08T12:09:36.484Z,101196.42
2018-02-08T12:12:04.191Z,101198.05
2018-02-08T12:14:31.933Z,101197.16
2018-02-08T12:16:59.432Z,101195.25
2018-02-08T12:19:26.967Z,101191.67
2018-02-08T12:21:54.634Z,101193.39
2018-02-08T12:24:22.133Z,101197.08
2018-02-08T12:26:49.728Z,101198.97
2018-02-08T12:29:17.478Z,101197.70
2018-02-08T12:31:44.980Z,101197.97
2018-02-08T12:34:12.537Z,101195.89
2018-02-08T12:36:40.339Z,101195.84
2018-02-08T12:39:07.861Z,101192.80
2018-02-08T12:41:35.512Z,101190.61
2018-02-08T12:44:03.182Z,101192.52
2018-02-08T12:46:30.670Z,101188.47
2018-02-08T12:48:58.913Z,101190.48
2018-02-08T12:51:26.468Z,101183.47
2018-02-08T12:53:53.962Z,101178.63
2018-02-08T12:56:21.518Z,101169.20
2018-02-08T12:58:49.059Z,101170.64
2018-02-08T13:01:16.581Z,101167.78
2018-02-08T13:03:44.104Z,101164.96
2018-02-08T13:06:11.634Z,101162.70
2018-02-08T13:08:39.133Z,101154.23
2018-02-08T13:11:06.666Z,101158.39
2018-02-08T13:13:34.195Z,101158.52
2018-02-08T13:16:01.686Z,101158.31
2018-02-08T13:18:32.122Z,101151.44
2018-02-08T13:20:59.633Z,101155.17
2018-02-08T13:23:27.268Z,101150.88
2018-02-08T13:25:54.796Z,101147.98
2018-02-08T13:28:22.313Z,101148.27
2018-02-08T13:30:49.863Z,101151.82
2018-02-08T13:33:17.355Z,101155.95
2018-02-08T13:35:44.890Z,101152.94
2018-02-08T13:38:12.428Z,101149.35
2018-02-08T13:40:47.336Z,101156.09
2018-02-08T13:43:14.847Z,101152.00
2018-02-08T13:45:42.375Z,101156.39
2018-02-08T13:48:11.892Z,101159.86
2018-02-08T13:50:39.377Z,101157.53
2018-02-08T13:53:12.471Z,101154.75
2018-02-08T13:58:56.014Z,101164.16
2018-02-08T14:01:25.736Z,101164.15
2018-02-08T14:03:53.273Z,101161.22
2018-02-08T14:06:20.748Z,101157.02
2018-02-08T14:08:48.221Z,101158.06
2018-02-08T14:11:15.722Z,101161.66
2018-02-08T14:13:43.283Z,101152.77
2018-02-08T14:16:10.796Z,101153.55
2018-02-08T14:18:38.468Z,101158.03
2018-02-08T14:21:05.956Z,101151.09
2018-02-08T14:23:33.455Z,101157.61
2018-02-08T14:26:00.986Z,101156.74
2018-02-08T14:28:28.529Z,101154.30
2018-02-08T14:30:56.094Z,101154.53
2018-02-08T14:33:23.607Z,101152.89
2018-02-08T14:35:51.110Z,101154.66
2018-02-08T14:38:18.690Z,101145.48
2018-02-08T14:40:46.205Z,101147.59
2018-02-08T14:43:13.702Z,101148.55
2018-02-08T14:45:41.240Z,101139.94
2018-02-08T14:48:08.740Z,101148.08
2018-02-08T14:50:36.315Z,101141.80
2018-02-08T14:53:03.827Z,101139.20
2018-02-08T14:55:31.389Z,101135.77
2018-02-08T14:57:58.935Z,101141.02
2018-02-08T15:00:26.484Z,101143.98
2018-02-08T15:02:54.051Z,101139.91
2018-02-08T15:05:21.562Z,101135.23
2018-02-08T15:07:49.116Z,101126.88
2018-02-08T15:10:16.669Z,101132.27
2018-02-08T15:12:44.266Z,101133.53
2018-02-08T15:15:11.775Z,101127.84
2018-02-08T15:17:39.315Z,101134.67
2018-02-08T15:20:06.935Z,101131.92
2018-02-08T15:22:34.427Z,101134.08
2018-02-08T15:25:02.000Z,101131.98
2018-02-08T15:27:29.548Z,101136.94
2018-02-08T15:29:57.104Z,101132.48
2018-02-08T15:32:24.639Z,101132.64
2018-02-08T15:34:52.249Z,101130.80
2018-02-08T15:37:19.770Z,101134.02
2018-02-08T15:39:47.317Z,101134.49
2018-02-08T15:42:14.821Z,101125.95
2018-02-08T15:44:42.437Z,101129.73
2018-02-08T15:47:09.962Z,101127.20
2018-02-08T15:49:37.466Z,101124.89
2018-02-08T15:52:04.988Z,101127.20
2018-02-08T15:54:32.524Z,101129.73
2018-02-08T15:57:00.033Z,101130.42
2018-02-08T15:59:27.545Z,101132.34
2018-02-08T16:01:55.151Z,101125.56
2018-02-08T16:04:22.771Z,101125.00
2018-02-08T16:06:50.296Z,101127.42
2018-02-08T16:09:17.952Z,101129.72
2018-02-08T16:11:45.626Z,101130.48
2018-02-08T16:14:13.122Z,101132.58
2018-02-08T16:16:40.666Z,101135.82
2018-02-08T16:19:08.209Z,101138.54
2018-02-08T16:21:35.739Z,101136.16
2018-02-08T16:24:03.326Z,101139.88
2018-02-08T16:26:30.854Z,101131.33
2018-02-08T16:28:58.349Z,101139.65
2018-02-08T16:31:25.856Z,101138.36
2018-02-08T16:33:54.166Z,101133.94
2018-02-08T16:36:21.671Z,101136.38
2018-02-08T16:38:49.216Z,101137.66
2018-02-08T16:41:16.758Z,101132.13
2018-02-08T16:43:44.305Z,101132.05
2018-02-08T16:46:11.860Z,101123.83
2018-02-08T16:48:39.402Z,101121.72
2018-02-08T16:51:06.988Z,101124.42
2018-02-08T16:53:34.800Z,101121.39
2018-02-08T16:56:02.605Z,101121.83
2018-02-08T16:58:30.174Z,101115.39
2018-02-08T17:00:57.736Z,101117.95
2018-02-08T17:03:25.363Z,101122.27
2018-02-08T17:05:52.859Z,101130.05
2018-02-08T17:08:20.376Z,101132.09
2018-02-08T17:10:47.917Z,101137.80
2018-02-08T17:13:15.440Z,101139.88
2018-02-08T17:15:42.979Z,101146.06
2018-02-08T17:18:10.485Z,101142.52
2018-02-08T17:20:38.316Z,101137.04
2018-02-08T17:23:05.841Z,101145.39
2018-02-08T17:25:33.395Z,101146.81
2018-02-08T17:28:00.946Z,101151.45
2018-02-08T17:30:28.462Z,101152.59
2018-02-08T17:32:56.316Z,101155.01
2018-02-08T17:35:23.909Z,101150.58
2018-02-08T17:37:51.439Z,101153.19
2018-02-08T17:40:19.064Z,101151.36
2018-02-08T17:42:46.615Z,101154.95
2018-02-08T17:45:14.125Z,101153.50
2018-02-08T17:47:44.826Z,101153.34
2018-02-08T17:50:12.775Z,101151.19
2018-02-08T17:52:40.319Z,101151.27
2018-02-08T17:55:07.875Z,101160.14
2018-02-08T17:57:35.431Z,101156.19
2018-02-08T18:00:02.980Z,101156.88
2018-02-08T18:02:30.555Z,101158.28
2018-02-08T18:04:58.104Z,101151.41
2018-02-08T18:07:25.618Z,101148.38
2018-02-08T18:09:53.152Z,101152.58
2018-02-08T18:12:20.661Z,101158.80
2018-02-08T18:14:48.208Z,101156.02
2018-02-08T18:17:15.798Z,101163.30
2018-02-08T18:19:43.451Z,101163.56
2018-02-08T18:22:10.983Z,101158.28
2018-02-08T18:24:38.493Z,101167.41
2018-02-08T18:27:06.054Z,101165.13
2018-02-08T18:29:33.574Z,101168.75
2018-02-08T18:32:01.669Z,101162.26
2018-02-08T18:34:29.227Z,101159.42
2018-02-08T18:36:56.740Z,101157.38
2018-02-08T18:39:24.230Z,101160.32
2018-02-08T18:41:52.080Z,101161.81
2018-02-08T18:44:19.777Z,101163.31
2018-02-08T18:46:48.687Z,101158.27
2018-02-08T18:49:16.428Z,101159.95
2018-02-08T18:51:45.549Z,101162.14
2018-02-08T18:54:13.482Z,101161.81
2018-02-08T18:56:41.023Z,101158.75
2018-02-08T18:59:08.560Z,101153.64
2018-02-08T19:01:36.098Z,101148.97
2018-02-08T19:04:04.504Z,101146.17
2018-02-08T19:06:32.625Z,101146.36
2018-02-08T19:09:00.164Z,101143.16
2018-02-08T19:11:27.668Z,101145.17
2018-02-08T19:13:55.382Z,101147.16
2018-02-08T19:16:22.917Z,101143.66
2018-02-08T19:18:51.109Z,101139.88
2018-02-08T19:21:18.673Z,101140.11
2018-02-08T19:23:46.503Z,101142.64
2018-02-08T19:26:14.368Z,101139.61
2018-02-08T19:28:41.993Z,101140.70
2018-02-08T19:31:09.551Z,101138.49
2018-02-08T19:33:37.075Z,101142.28
2018-02-08T19:36:04.638Z,101139.27
2018-02-08T19:38:32.890Z,101133.52
2018-02-08T19:41:00.404Z,101134.39
2018-02-08T19:43:27.968Z,101134.91
2018-02-08T19:45:55.465Z,101136.37
2018-02-08T19:48:22.997Z,101145.34
2018-02-08T19:50:50.596Z,101137.72
2018-02-08T19:53:18.162Z,101142.72
2018-02-08T19:55:45.691Z,101141.52
2018-02-08T19:58:13.236Z,101139.94
2018-02-08T20:00:40.774Z,101145.28
2018-02-08T20:03:08.840Z,101144.98
2018-02-08T20:05:36.617Z,101141.20
2018-02-08T20:08:04.125Z,101142.17
2018-02-08T20:10:31.653Z,101141.89
2018-02-08T20:12:59.142Z,101148.56
2018-02-08T20:15:37.460Z,101148.97
2018-02-08T20:18:05.052Z,101145.64
2018-02-08T20:20:32.605Z,101143.58
2018-02-08T20:23:00.136Z,101141.33
2018-02-08T20:25:33.219Z,101138.06
2018-02-08T20:28:00.772Z,101136.23
2018-02-08T20:30:28.344Z,101134.98
2018-02-08T20:32:55.937Z,101125.77
2018-02-08T20:35:23.489Z,101128.19
2018-02-08T20:37:51.005Z,101129.02
2018-02-08T20:40:32.659Z,101130.84
2018-02-08T20:43:05.836Z,101126.77
2018-02-08T20:45:33.440Z,101126.42
2018-02-08T20:48:01.024Z,101124.40
2018-02-08T20:50:28.546Z,101121.48
2018-02-08T20:52:56.144Z,101120.66
2018-02-08T20:55:23.723Z,101117.75
2018-02-08T20:57:51.278Z,101118.16
2018-02-08T21:00:18.870Z,101113.46
2018-02-08T21:02:46.391Z,101116.12
2018-02-08T21:05:13.968Z,101113.70
2018-02-08T21:07:41.471Z,101120.08
2018-02-08T21:10:09.023Z,101110.78
2018-02-08T21:12:36.548Z,101106.39
2018-02-08T21:15:04.159Z,101109.22
2018-02-08T21:17:31.825Z,101111.02
2018-02-08T21:19:59.378Z,101103.20
2018-02-08T21:22:26.865Z,101100.29
2018-02-08T21:24:54.430Z,101100.19
2018-02-08T21:27:21.979Z,101100.97
2018-02-08T21:29:49.593Z,101097.77
2018-02-08T21:32:17.114Z,101092.89
2018-02-08T21:34:44.673Z,101092.20
2018-02-08T21:37:12.189Z,101089.01
2018-02-08T21:39:39.740Z,101091.73
2018-02-08T21:42:07.383Z,101088.46
2018-02-08T21:44:34.909Z,101089.69
2018-02-08T21:47:02.454Z,101079.83
2018-02-08T21:49:29.974Z,101080.91
2018-02-08T21:51:57.509Z,101080.60
2018-02-08T21:54:25.083Z,101078.92
2018-02-08T21:56:52.669Z,101080.42
2018-02-08T21:59:20.211Z,101075.70
2018-02-08T22:01:47.788Z,101077.77
2018-02-08T22:04:15.386Z,101078.89
2018-02-08T22:06:42.906Z,101083.37
2018-02-08T22:09:10.465Z,101085.00
2018-02-08T22:11:37.973Z,101079.16
2018-02-08T22:14:05.504Z,101079.61
2018-02-08T22:16:33.024Z,101078.89
2018-02-08T22:19:00.648Z,101079.61
2018-02-08T22:21:28.236Z,101081.89
2018-02-08T22:23:56.504Z,101078.39
2018-02-08T22:26:24.044Z,101074.95
2018-02-08T22:28:51.553Z,101074.08
2018-02-08T22:31:19.065Z,101077.23
2018-02-08T22:33:46.630Z,101078.81
2018-02-08T22:36:14.149Z,101083.40
2018-02-08T22:38:47.735Z,101075.29
2018-02-08T22:41:15.264Z,101084.67
2018-02-08T22:43:42.802Z,101079.88
2018-02-08T22:46:10.363Z,101077.86
2018-02-08T22:48:37.982Z,101075.41
2018-02-08T22:51:05.580Z,101074.90
2018-02-08T22:53:33.127Z,101074.05
2018-02-08T22:56:00.674Z,101077.14
2018-02-08T22:58:28.252Z,101077.37
2018-02-08T23:00:55.777Z,101075.09
2018-02-08T23:03:23.303Z,101077.32
2018-02-08T23:05:50.836Z,101076.98
2018-02-08T23:08:18.390Z,101073.73
2018-02-08T23:10:46.016Z,101081.91
2018-02-08T23:13:13.584Z,101079.30
2018-02-08T23:15:41.077Z,101075.08
2018-02-08T23:18:08.642Z,101065.23
2018-02-08T23:20:36.306Z,101062.00
2018-02-08T23:23:03.849Z,101066.64
2018-02-08T23:25:31.536Z,101061.95
2018-02-08T23:27:59.280Z,101067.72
2018-02-08T23:30:27.376Z,101067.22
2018-02-08T23:32:54.870Z,101061.95
2018-02-08T23:35:22.386Z,101066.45
2018-02-08T23:37:50.349Z,101061.73
2018-02-08T23:40:17.950Z,101060.17
2018-02-08T23:42:45.520Z,101056.14
2018-02-08T23:45:13.105Z,101054.70
2018-02-08T23:47:40.666Z,101050.75
2018-02-08T23:50:08.395Z,101047.37
2018-02-08T23:52:36.016Z,101046.05
2018-02-08T23:55:03.718Z,101047.09
2018-02-08T23:57:31.282Z,101048.39
2018-02-08T23:59:58.821Z,101051.23
